sensor_id;sensor_type;location;lat;lon;timestamp;P1;durP1;ratioP1;P2;durP2;ratioP2
43150;SDS011;28755;51.478;5.702;2022-07-17T00:01:45;7.85;;;2.40;;
43150;SDS011;28755;51.478;5.702;2022-07-17T00:04:10;9.23;;;2.50;;
43150;SDS011;28755;51.478;5.702;2022-07-17T00:06:36;7.47;;;2.30;;
43150;SDS011;28755;51.478;5.702;2022-07-17T00:09:02;11.25;;;2.47;;
43150;SDS011;28755;51.478;5.702;2022-07-17T00:11:28;9.60;;;2.50;;
43150;SDS011;28755;51.478;5.702;2022-07-17T00:13:53;9.15;;;2.30;;
43150;SDS011;28755;51.478;5.702;2022-07-17T00:16:19;6.85;;;2.28;;
43150;SDS011;28755;51.478;5.702;2022-07-17T00:18:45;9.07;;;2.63;;
43150;SDS011;28755;51.478;5.702;2022-07-17T00:21:11;15.52;;;3.63;;
43150;SDS011;28755;51.478;5.702;2022-07-17T00:23:36;9.52;;;3.17;;
43150;SDS011;28755;51.478;5.702;2022-07-17T00:26:02;11.10;;;3.88;;
43150;SDS011;28755;51.478;5.702;2022-07-17T00:28:27;12.00;;;3.10;;
43150;SDS011;28755;51.478;5.702;2022-07-17T00:30:53;13.80;;;2.90;;
43150;SDS011;28755;51.478;5.702;2022-07-17T00:33:18;7.18;;;3.00;;
43150;SDS011;28755;51.478;5.702;2022-07-17T00:35:44;12.95;;;2.85;;
43150;SDS011;28755;51.478;5.702;2022-07-17T00:38:10;11.02;;;2.88;;
43150;SDS011;28755;51.478;5.702;2022-07-17T00:40:35;14.52;;;3.42;;
43150;SDS011;28755;51.478;5.702;2022-07-17T00:43:01;13.48;;;3.47;;
43150;SDS011;28755;51.478;5.702;2022-07-17T00:45:27;14.82;;;4.60;;
43150;SDS011;28755;51.478;5.702;2022-07-17T00:47:57;13.70;;;4.03;;
43150;SDS011;28755;51.478;5.702;2022-07-17T00:50:27;10.10;;;2.80;;
43150;SDS011;28755;51.478;5.702;2022-07-17T00:52:58;11.63;;;2.85;;
43150;SDS011;28755;51.478;5.702;2022-07-17T00:55:24;9.60;;;3.55;;
43150;SDS011;28755;51.478;5.702;2022-07-17T00:57:50;12.43;;;3.53;;
43150;SDS011;28755;51.478;5.702;2022-07-17T01:00:17;8.18;;;3.00;;
43150;SDS011;28755;51.478;5.702;2022-07-17T01:02:47;7.78;;;3.38;;
43150;SDS011;28755;51.478;5.702;2022-07-17T01:05:14;9.10;;;2.78;;
43150;SDS011;28755;51.478;5.702;2022-07-17T01:07:41;7.65;;;2.70;;
43150;SDS011;28755;51.478;5.702;2022-07-17T01:10:07;7.88;;;2.35;;
43150;SDS011;28755;51.478;5.702;2022-07-17T01:12:33;7.53;;;2.25;;
43150;SDS011;28755;51.478;5.702;2022-07-17T01:14:59;7.90;;;2.30;;
43150;SDS011;28755;51.478;5.702;2022-07-17T01:17:25;7.18;;;2.58;;
43150;SDS011;28755;51.478;5.702;2022-07-17T01:19:51;11.23;;;2.25;;
43150;SDS011;28755;51.478;5.702;2022-07-17T01:22:17;5.38;;;2.38;;
43150;SDS011;28755;51.478;5.702;2022-07-17T01:24:43;8.02;;;2.60;;
43150;SDS011;28755;51.478;5.702;2022-07-17T01:27:08;9.32;;;2.90;;
43150;SDS011;28755;51.478;5.702;2022-07-17T01:29:37;9.52;;;2.33;;
43150;SDS011;28755;51.478;5.702;2022-07-17T01:32:04;6.22;;;2.10;;
43150;SDS011;28755;51.478;5.702;2022-07-17T01:34:30;6.90;;;2.22;;
43150;SDS011;28755;51.478;5.702;2022-07-17T01:36:56;9.23;;;2.63;;
43150;SDS011;28755;51.478;5.702;2022-07-17T01:39:22;7.88;;;2.22;;
43150;SDS011;28755;51.478;5.702;2022-07-17T01:42:07;11.23;;;2.67;;
43150;SDS011;28755;51.478;5.702;2022-07-17T01:44:33;6.35;;;2.40;;
43150;SDS011;28755;51.478;5.702;2022-07-17T01:46:59;8.13;;;2.67;;
43150;SDS011;28755;51.478;5.702;2022-07-17T01:49:25;10.20;;;2.50;;
43150;SDS011;28755;51.478;5.702;2022-07-17T01:51:50;11.25;;;1.92;;
43150;SDS011;28755;51.478;5.702;2022-07-17T01:54:16;13.25;;;2.83;;
43150;SDS011;28755;51.478;5.702;2022-07-17T01:56:42;8.68;;;2.10;;
43150;SDS011;28755;51.478;5.702;2022-07-17T01:59:07;11.88;;;2.20;;
43150;SDS011;28755;51.478;5.702;2022-07-17T02:01:33;5.60;;;1.92;;
43150;SDS011;28755;51.478;5.702;2022-07-17T02:03:59;8.57;;;1.95;;
43150;SDS011;28755;51.478;5.702;2022-07-17T02:06:24;10.43;;;2.47;;
43150;SDS011;28755;51.478;5.702;2022-07-17T02:08:50;10.95;;;2.47;;
43150;SDS011;28755;51.478;5.702;2022-07-17T02:11:17;10.18;;;2.28;;
43150;SDS011;28755;51.478;5.702;2022-07-17T02:13:43;7.55;;;2.50;;
43150;SDS011;28755;51.478;5.702;2022-07-17T02:16:08;8.45;;;2.33;;
43150;SDS011;28755;51.478;5.702;2022-07-17T02:18:34;5.85;;;2.10;;
43150;SDS011;28755;51.478;5.702;2022-07-17T02:21:00;8.13;;;2.40;;
43150;SDS011;28755;51.478;5.702;2022-07-17T02:23:26;6.05;;;2.20;;
43150;SDS011;28755;51.478;5.702;2022-07-17T02:25:53;7.45;;;2.42;;
43150;SDS011;28755;51.478;5.702;2022-07-17T02:28:19;7.25;;;2.15;;
43150;SDS011;28755;51.478;5.702;2022-07-17T02:30:45;8.05;;;2.78;;
43150;SDS011;28755;51.478;5.702;2022-07-17T02:33:11;8.85;;;2.53;;
43150;SDS011;28755;51.478;5.702;2022-07-17T02:35:37;6.60;;;2.35;;
43150;SDS011;28755;51.478;5.702;2022-07-17T02:38:02;7.40;;;2.35;;
43150;SDS011;28755;51.478;5.702;2022-07-17T02:40:28;7.93;;;2.63;;
43150;SDS011;28755;51.478;5.702;2022-07-17T02:42:54;10.63;;;2.60;;
43150;SDS011;28755;51.478;5.702;2022-07-17T02:45:19;9.73;;;2.55;;
43150;SDS011;28755;51.478;5.702;2022-07-17T02:47:49;6.63;;;2.65;;
43150;SDS011;28755;51.478;5.702;2022-07-17T02:50:15;8.65;;;2.63;;
43150;SDS011;28755;51.478;5.702;2022-07-17T02:52:41;7.40;;;2.10;;
43150;SDS011;28755;51.478;5.702;2022-07-17T02:55:08;7.03;;;2.53;;
43150;SDS011;28755;51.478;5.702;2022-07-17T02:57:34;10.75;;;2.60;;
43150;SDS011;28755;51.478;5.702;2022-07-17T03:00:01;7.82;;;2.38;;
43150;SDS011;28755;51.478;5.702;2022-07-17T03:02:28;6.57;;;2.60;;
43150;SDS011;28755;51.478;5.702;2022-07-17T03:04:54;11.60;;;2.72;;
43150;SDS011;28755;51.478;5.702;2022-07-17T03:07:19;11.63;;;2.83;;
43150;SDS011;28755;51.478;5.702;2022-07-17T03:09:45;11.13;;;2.67;;
43150;SDS011;28755;51.478;5.702;2022-07-17T03:12:11;8.77;;;2.88;;
43150;SDS011;28755;51.478;5.702;2022-07-17T03:14:37;10.00;;;2.67;;
43150;SDS011;28755;51.478;5.702;2022-07-17T03:17:02;9.80;;;3.67;;
43150;SDS011;28755;51.478;5.702;2022-07-17T03:19:28;6.18;;;3.00;;
43150;SDS011;28755;51.478;5.702;2022-07-17T03:21:53;10.80;;;3.47;;
43150;SDS011;28755;51.478;5.702;2022-07-17T03:24:19;5.10;;;3.28;;
43150;SDS011;28755;51.478;5.702;2022-07-17T03:26:45;8.60;;;3.45;;
43150;SDS011;28755;51.478;5.702;2022-07-17T03:29:10;8.05;;;2.97;;
43150;SDS011;28755;51.478;5.702;2022-07-17T03:31:36;11.45;;;4.07;;
43150;SDS011;28755;51.478;5.702;2022-07-17T03:34:01;11.80;;;3.78;;
43150;SDS011;28755;51.478;5.702;2022-07-17T03:36:27;12.70;;;3.53;;
43150;SDS011;28755;51.478;5.702;2022-07-17T03:38:53;9.23;;;3.53;;
43150;SDS011;28755;51.478;5.702;2022-07-17T03:41:18;13.07;;;3.88;;
43150;SDS011;28755;51.478;5.702;2022-07-17T03:43:44;11.38;;;3.40;;
43150;SDS011;28755;51.478;5.702;2022-07-17T03:46:09;11.48;;;3.20;;
43150;SDS011;28755;51.478;5.702;2022-07-17T03:48:35;11.10;;;3.05;;
43150;SDS011;28755;51.478;5.702;2022-07-17T03:51:01;7.97;;;3.40;;
43150;SDS011;28755;51.478;5.702;2022-07-17T03:53:27;9.63;;;3.25;;
43150;SDS011;28755;51.478;5.702;2022-07-17T03:55:52;6.50;;;3.42;;
43150;SDS011;28755;51.478;5.702;2022-07-17T03:58:18;10.48;;;3.50;;
43150;SDS011;28755;51.478;5.702;2022-07-17T04:00:43;9.20;;;3.55;;
43150;SDS011;28755;51.478;5.702;2022-07-17T04:03:09;10.07;;;3.30;;
43150;SDS011;28755;51.478;5.702;2022-07-17T04:05:35;5.90;;;3.38;;
43150;SDS011;28755;51.478;5.702;2022-07-17T04:08:00;5.70;;;3.25;;
43150;SDS011;28755;51.478;5.702;2022-07-17T04:10:26;8.32;;;3.55;;
43150;SDS011;28755;51.478;5.702;2022-07-17T04:12:51;7.75;;;2.97;;
43150;SDS011;28755;51.478;5.702;2022-07-17T04:15:17;6.97;;;3.10;;
43150;SDS011;28755;51.478;5.702;2022-07-17T04:18:02;9.27;;;3.08;;
43150;SDS011;28755;51.478;5.702;2022-07-17T04:20:28;7.28;;;3.50;;
43150;SDS011;28755;51.478;5.702;2022-07-17T04:22:54;7.68;;;3.60;;
43150;SDS011;28755;51.478;5.702;2022-07-17T04:25:19;9.23;;;3.42;;
43150;SDS011;28755;51.478;5.702;2022-07-17T04:27:45;7.93;;;3.53;;
43150;SDS011;28755;51.478;5.702;2022-07-17T04:30:10;9.80;;;3.50;;
43150;SDS011;28755;51.478;5.702;2022-07-17T04:32:36;9.48;;;3.42;;
43150;SDS011;28755;51.478;5.702;2022-07-17T04:35:02;12.13;;;3.75;;
43150;SDS011;28755;51.478;5.702;2022-07-17T04:37:28;8.35;;;4.15;;
43150;SDS011;28755;51.478;5.702;2022-07-17T04:39:54;8.60;;;3.40;;
43150;SDS011;28755;51.478;5.702;2022-07-17T04:42:19;9.70;;;3.83;;
43150;SDS011;28755;51.478;5.702;2022-07-17T04:44:45;8.85;;;3.70;;
43150;SDS011;28755;51.478;5.702;2022-07-17T04:47:10;7.15;;;3.70;;
43150;SDS011;28755;51.478;5.702;2022-07-17T04:49:36;10.18;;;4.28;;
43150;SDS011;28755;51.478;5.702;2022-07-17T04:52:02;12.07;;;3.60;;
43150;SDS011;28755;51.478;5.702;2022-07-17T04:54:27;7.70;;;3.70;;
43150;SDS011;28755;51.478;5.702;2022-07-17T04:56:53;13.10;;;3.80;;
43150;SDS011;28755;51.478;5.702;2022-07-17T04:59:18;8.80;;;3.42;;
43150;SDS011;28755;51.478;5.702;2022-07-17T05:01:44;11.52;;;3.33;;
43150;SDS011;28755;51.478;5.702;2022-07-17T05:04:10;6.95;;;3.45;;
43150;SDS011;28755;51.478;5.702;2022-07-17T05:06:35;10.43;;;3.75;;
43150;SDS011;28755;51.478;5.702;2022-07-17T05:09:01;10.43;;;4.10;;
43150;SDS011;28755;51.478;5.702;2022-07-17T05:11:26;6.30;;;3.42;;
43150;SDS011;28755;51.478;5.702;2022-07-17T05:13:52;9.00;;;4.10;;
43150;SDS011;28755;51.478;5.702;2022-07-17T05:16:18;11.65;;;3.60;;
43150;SDS011;28755;51.478;5.702;2022-07-17T05:18:43;10.43;;;4.22;;
43150;SDS011;28755;51.478;5.702;2022-07-17T05:21:09;11.88;;;3.50;;
43150;SDS011;28755;51.478;5.702;2022-07-17T05:23:35;9.38;;;3.65;;
43150;SDS011;28755;51.478;5.702;2022-07-17T05:26:00;7.15;;;3.50;;
43150;SDS011;28755;51.478;5.702;2022-07-17T05:28:26;9.52;;;3.38;;
43150;SDS011;28755;51.478;5.702;2022-07-17T05:30:51;10.85;;;4.00;;
43150;SDS011;28755;51.478;5.702;2022-07-17T05:33:17;10.50;;;4.10;;
43150;SDS011;28755;51.478;5.702;2022-07-17T05:35:42;12.80;;;4.47;;
43150;SDS011;28755;51.478;5.702;2022-07-17T05:38:09;14.75;;;4.22;;
43150;SDS011;28755;51.478;5.702;2022-07-17T05:40:35;12.63;;;4.20;;
43150;SDS011;28755;51.478;5.702;2022-07-17T05:43:01;12.27;;;4.07;;
43150;SDS011;28755;51.478;5.702;2022-07-17T05:45:26;11.40;;;4.32;;
43150;SDS011;28755;51.478;5.702;2022-07-17T05:47:52;9.43;;;4.03;;
43150;SDS011;28755;51.478;5.702;2022-07-17T05:50:18;10.95;;;4.10;;
43150;SDS011;28755;51.478;5.702;2022-07-17T05:52:43;8.10;;;4.00;;
43150;SDS011;28755;51.478;5.702;2022-07-17T05:55:09;7.80;;;4.00;;
43150;SDS011;28755;51.478;5.702;2022-07-17T05:57:35;13.23;;;4.00;;
43150;SDS011;28755;51.478;5.702;2022-07-17T06:00:00;12.52;;;3.95;;
43150;SDS011;28755;51.478;5.702;2022-07-17T06:02:26;9.60;;;4.13;;
43150;SDS011;28755;51.478;5.702;2022-07-17T06:04:52;9.60;;;4.20;;
43150;SDS011;28755;51.478;5.702;2022-07-17T06:07:17;10.82;;;3.95;;
43150;SDS011;28755;51.478;5.702;2022-07-17T06:09:43;13.45;;;3.78;;
43150;SDS011;28755;51.478;5.702;2022-07-17T06:12:08;10.73;;;3.88;;
43150;SDS011;28755;51.478;5.702;2022-07-17T06:14:34;8.75;;;3.85;;
43150;SDS011;28755;51.478;5.702;2022-07-17T06:16:59;11.90;;;4.32;;
43150;SDS011;28755;51.478;5.702;2022-07-17T06:19:25;10.32;;;3.60;;
43150;SDS011;28755;51.478;5.702;2022-07-17T06:21:50;14.60;;;3.53;;
43150;SDS011;28755;51.478;5.702;2022-07-17T06:24:16;9.18;;;4.15;;
43150;SDS011;28755;51.478;5.702;2022-07-17T06:26:42;13.27;;;3.50;;
43150;SDS011;28755;51.478;5.702;2022-07-17T06:29:07;13.15;;;3.88;;
43150;SDS011;28755;51.478;5.702;2022-07-17T06:31:33;12.00;;;3.70;;
43150;SDS011;28755;51.478;5.702;2022-07-17T06:33:58;9.77;;;3.60;;
43150;SDS011;28755;51.478;5.702;2022-07-17T06:36:24;7.95;;;3.60;;
43150;SDS011;28755;51.478;5.702;2022-07-17T06:38:50;12.93;;;3.83;;
43150;SDS011;28755;51.478;5.702;2022-07-17T06:41:15;12.18;;;3.50;;
43150;SDS011;28755;51.478;5.702;2022-07-17T06:43:41;9.57;;;3.95;;
43150;SDS011;28755;51.478;5.702;2022-07-17T06:46:06;8.35;;;3.33;;
43150;SDS011;28755;51.478;5.702;2022-07-17T06:48:32;12.00;;;3.70;;
43150;SDS011;28755;51.478;5.702;2022-07-17T06:50:58;10.77;;;3.90;;
43150;SDS011;28755;51.478;5.702;2022-07-17T06:53:23;10.23;;;3.40;;
43150;SDS011;28755;51.478;5.702;2022-07-17T06:55:49;11.52;;;3.55;;
43150;SDS011;28755;51.478;5.702;2022-07-17T06:58:14;9.70;;;4.05;;
43150;SDS011;28755;51.478;5.702;2022-07-17T07:00:40;13.05;;;4.13;;
43150;SDS011;28755;51.478;5.702;2022-07-17T07:03:05;9.98;;;3.40;;
43150;SDS011;28755;51.478;5.702;2022-07-17T07:05:31;12.68;;;3.42;;
43150;SDS011;28755;51.478;5.702;2022-07-17T07:07:57;14.88;;;4.00;;
43150;SDS011;28755;51.478;5.702;2022-07-17T07:10:22;17.65;;;4.20;;
43150;SDS011;28755;51.478;5.702;2022-07-17T07:12:48;15.07;;;4.00;;
43150;SDS011;28755;51.478;5.702;2022-07-17T07:15:14;13.15;;;4.28;;
43150;SDS011;28755;51.478;5.702;2022-07-17T07:17:40;10.07;;;3.78;;
43150;SDS011;28755;51.478;5.702;2022-07-17T07:20:06;10.02;;;4.03;;
43150;SDS011;28755;51.478;5.702;2022-07-17T07:22:33;15.10;;;3.90;;
43150;SDS011;28755;51.478;5.702;2022-07-17T07:24:58;13.45;;;4.22;;
43150;SDS011;28755;51.478;5.702;2022-07-17T07:27:24;11.60;;;3.70;;
43150;SDS011;28755;51.478;5.702;2022-07-17T07:29:50;12.13;;;3.70;;
43150;SDS011;28755;51.478;5.702;2022-07-17T07:32:15;10.57;;;3.92;;
43150;SDS011;28755;51.478;5.702;2022-07-17T07:34:41;8.90;;;3.10;;
43150;SDS011;28755;51.478;5.702;2022-07-17T07:37:07;10.00;;;3.75;;
43150;SDS011;28755;51.478;5.702;2022-07-17T07:39:32;14.43;;;3.80;;
43150;SDS011;28755;51.478;5.702;2022-07-17T07:41:58;13.50;;;3.75;;
43150;SDS011;28755;51.478;5.702;2022-07-17T07:44:24;12.73;;;3.50;;
43150;SDS011;28755;51.478;5.702;2022-07-17T07:46:50;9.38;;;3.45;;
43150;SDS011;28755;51.478;5.702;2022-07-17T07:49:16;8.55;;;3.28;;
43150;SDS011;28755;51.478;5.702;2022-07-17T07:51:42;11.65;;;3.70;;
43150;SDS011;28755;51.478;5.702;2022-07-17T07:54:08;13.02;;;3.60;;
43150;SDS011;28755;51.478;5.702;2022-07-17T07:56:33;10.65;;;2.90;;
43150;SDS011;28755;51.478;5.702;2022-07-17T07:59:00;9.88;;;3.40;;
43150;SDS011;28755;51.478;5.702;2022-07-17T08:01:25;9.57;;;3.35;;
43150;SDS011;28755;51.478;5.702;2022-07-17T08:03:51;10.57;;;3.22;;
43150;SDS011;28755;51.478;5.702;2022-07-17T08:06:16;12.73;;;3.50;;
43150;SDS011;28755;51.478;5.702;2022-07-17T08:08:42;8.35;;;2.47;;
43150;SDS011;28755;51.478;5.702;2022-07-17T08:11:08;8.60;;;2.78;;
43150;SDS011;28755;51.478;5.702;2022-07-17T08:13:33;10.95;;;2.60;;
43150;SDS011;28755;51.478;5.702;2022-07-17T08:15:59;6.63;;;2.05;;
43150;SDS011;28755;51.478;5.702;2022-07-17T08:18:25;8.43;;;2.30;;
43150;SDS011;28755;51.478;5.702;2022-07-17T08:20:51;8.35;;;2.35;;
43150;SDS011;28755;51.478;5.702;2022-07-17T08:23:17;14.15;;;2.72;;
43150;SDS011;28755;51.478;5.702;2022-07-17T08:25:43;9.50;;;2.38;;
43150;SDS011;28755;51.478;5.702;2022-07-17T08:28:09;9.38;;;2.47;;
43150;SDS011;28755;51.478;5.702;2022-07-17T08:30:35;9.43;;;2.30;;
43150;SDS011;28755;51.478;5.702;2022-07-17T08:33:02;7.57;;;1.88;;
43150;SDS011;28755;51.478;5.702;2022-07-17T08:35:28;7.75;;;1.90;;
43150;SDS011;28755;51.478;5.702;2022-07-17T08:37:54;8.65;;;2.10;;
43150;SDS011;28755;51.478;5.702;2022-07-17T08:40:21;7.95;;;2.00;;
43150;SDS011;28755;51.478;5.702;2022-07-17T08:42:48;7.70;;;2.05;;
43150;SDS011;28755;51.478;5.702;2022-07-17T08:45:14;7.03;;;2.10;;
43150;SDS011;28755;51.478;5.702;2022-07-17T08:47:40;6.53;;;1.85;;
43150;SDS011;28755;51.478;5.702;2022-07-17T08:50:06;8.90;;;2.28;;
43150;SDS011;28755;51.478;5.702;2022-07-17T08:52:36;11.77;;;2.33;;
43150;SDS011;28755;51.478;5.702;2022-07-17T08:55:03;9.30;;;2.00;;
43150;SDS011;28755;51.478;5.702;2022-07-17T08:57:32;4.90;;;1.67;;
43150;SDS011;28755;51.478;5.702;2022-07-17T09:00:01;5.88;;;1.70;;
43150;SDS011;28755;51.478;5.702;2022-07-17T09:02:29;7.78;;;1.75;;
43150;SDS011;28755;51.478;5.702;2022-07-17T09:04:55;10.32;;;2.05;;
43150;SDS011;28755;51.478;5.702;2022-07-17T09:07:21;7.13;;;1.77;;
43150;SDS011;28755;51.478;5.702;2022-07-17T09:09:53;7.75;;;2.15;;
43150;SDS011;28755;51.478;5.702;2022-07-17T09:12:28;5.78;;;1.92;;
43150;SDS011;28755;51.478;5.702;2022-07-17T09:15:00;12.10;;;2.10;;
43150;SDS011;28755;51.478;5.702;2022-07-17T09:17:49;10.68;;;2.22;;
43150;SDS011;28755;51.478;5.702;2022-07-17T09:20:18;5.70;;;1.70;;
43150;SDS011;28755;51.478;5.702;2022-07-17T09:22:55;8.88;;;1.85;;
43150;SDS011;28755;51.478;5.702;2022-07-17T09:25:32;6.63;;;1.80;;
43150;SDS011;28755;51.478;5.702;2022-07-17T09:28:00;5.55;;;1.90;;
43150;SDS011;28755;51.478;5.702;2022-07-17T09:30:27;7.85;;;1.83;;
43150;SDS011;28755;51.478;5.702;2022-07-17T09:32:54;6.50;;;1.50;;
43150;SDS011;28755;51.478;5.702;2022-07-17T09:35:20;8.57;;;1.77;;
43150;SDS011;28755;51.478;5.702;2022-07-17T09:37:47;5.72;;;1.80;;
43150;SDS011;28755;51.478;5.702;2022-07-17T09:40:13;5.95;;;1.55;;
43150;SDS011;28755;51.478;5.702;2022-07-17T09:42:58;8.63;;;1.83;;
43150;SDS011;28755;51.478;5.702;2022-07-17T09:45:24;5.53;;;1.98;;
43150;SDS011;28755;51.478;5.702;2022-07-17T09:47:49;6.20;;;1.70;;
43150;SDS011;28755;51.478;5.702;2022-07-17T09:50:18;6.43;;;1.80;;
43150;SDS011;28755;51.478;5.702;2022-07-17T09:52:44;9.98;;;1.95;;
43150;SDS011;28755;51.478;5.702;2022-07-17T09:55:10;6.70;;;2.00;;
43150;SDS011;28755;51.478;5.702;2022-07-17T09:57:36;6.30;;;2.05;;
43150;SDS011;28755;51.478;5.702;2022-07-17T10:00:07;5.60;;;1.70;;
43150;SDS011;28755;51.478;5.702;2022-07-17T10:02:43;4.57;;;1.98;;
43150;SDS011;28755;51.478;5.702;2022-07-17T10:05:09;5.63;;;1.83;;
43150;SDS011;28755;51.478;5.702;2022-07-17T10:07:38;6.18;;;2.20;;
43150;SDS011;28755;51.478;5.702;2022-07-17T10:10:08;9.00;;;1.85;;
43150;SDS011;28755;51.478;5.702;2022-07-17T10:12:36;8.10;;;2.38;;
43150;SDS011;28755;51.478;5.702;2022-07-17T10:15:05;11.77;;;2.35;;
43150;SDS011;28755;51.478;5.702;2022-07-17T10:17:32;8.02;;;1.80;;
43150;SDS011;28755;51.478;5.702;2022-07-17T10:19:58;5.60;;;1.90;;
43150;SDS011;28755;51.478;5.702;2022-07-17T10:22:24;5.30;;;2.00;;
43150;SDS011;28755;51.478;5.702;2022-07-17T10:24:57;6.20;;;2.25;;
43150;SDS011;28755;51.478;5.702;2022-07-17T10:27:29;8.02;;;2.05;;
43150;SDS011;28755;51.478;5.702;2022-07-17T10:32:27;6.15;;;1.70;;
43150;SDS011;28755;51.478;5.702;2022-07-17T10:35:01;7.82;;;2.10;;
43150;SDS011;28755;51.478;5.702;2022-07-17T10:37:32;7.82;;;2.10;;
43150;SDS011;28755;51.478;5.702;2022-07-17T10:42:47;8.07;;;2.03;;
43150;SDS011;28755;51.478;5.702;2022-07-17T10:45:18;6.00;;;1.60;;
43150;SDS011;28755;51.478;5.702;2022-07-17T10:50:41;6.90;;;1.50;;
43150;SDS011;28755;51.478;5.702;2022-07-17T10:55:46;4.28;;;1.40;;
43150;SDS011;28755;51.478;5.702;2022-07-17T10:58:17;6.30;;;1.42;;
43150;SDS011;28755;51.478;5.702;2022-07-17T11:03:25;5.22;;;1.58;;
43150;SDS011;28755;51.478;5.702;2022-07-17T11:05:51;5.05;;;1.65;;
43150;SDS011;28755;51.478;5.702;2022-07-17T11:08:17;5.18;;;1.52;;
43150;SDS011;28755;51.478;5.702;2022-07-17T11:10:43;7.18;;;1.27;;
43150;SDS011;28755;51.478;5.702;2022-07-17T11:13:11;4.32;;;1.40;;
43150;SDS011;28755;51.478;5.702;2022-07-17T11:15:40;7.75;;;1.92;;
43150;SDS011;28755;51.478;5.702;2022-07-17T11:18:10;5.97;;;1.83;;
43150;SDS011;28755;51.478;5.702;2022-07-17T11:20:50;7.60;;;1.90;;
43150;SDS011;28755;51.478;5.702;2022-07-17T11:23:24;5.57;;;1.85;;
43150;SDS011;28755;51.478;5.702;2022-07-17T11:25:53;5.10;;;1.48;;
43150;SDS011;28755;51.478;5.702;2022-07-17T11:28:33;7.47;;;1.50;;
43150;SDS011;28755;51.478;5.702;2022-07-17T11:31:05;5.38;;;1.90;;
43150;SDS011;28755;51.478;5.702;2022-07-17T11:33:47;6.53;;;1.88;;
43150;SDS011;28755;51.478;5.702;2022-07-17T11:36:36;6.65;;;2.10;;
43150;SDS011;28755;51.478;5.702;2022-07-17T11:39:10;4.55;;;1.65;;
43150;SDS011;28755;51.478;5.702;2022-07-17T11:41:41;6.57;;;1.48;;
43150;SDS011;28755;51.478;5.702;2022-07-17T11:44:09;8.60;;;1.92;;
43150;SDS011;28755;51.478;5.702;2022-07-17T11:46:37;3.35;;;1.45;;
43150;SDS011;28755;51.478;5.702;2022-07-17T11:49:05;5.32;;;1.50;;
43150;SDS011;28755;51.478;5.702;2022-07-17T11:51:42;6.00;;;1.30;;
43150;SDS011;28755;51.478;5.702;2022-07-17T11:54:12;5.40;;;1.65;;
43150;SDS011;28755;51.478;5.702;2022-07-17T11:56:39;5.03;;;2.00;;
43150;SDS011;28755;51.478;5.702;2022-07-17T11:59:06;8.05;;;1.63;;
43150;SDS011;28755;51.478;5.702;2022-07-17T12:01:40;6.30;;;1.73;;
43150;SDS011;28755;51.478;5.702;2022-07-17T12:04:08;7.70;;;1.65;;
43150;SDS011;28755;51.478;5.702;2022-07-17T12:06:35;7.50;;;1.85;;
43150;SDS011;28755;51.478;5.702;2022-07-17T12:09:00;6.13;;;2.00;;
43150;SDS011;28755;51.478;5.702;2022-07-17T12:11:26;5.88;;;1.80;;
43150;SDS011;28755;51.478;5.702;2022-07-17T12:13:51;7.35;;;1.50;;
43150;SDS011;28755;51.478;5.702;2022-07-17T12:16:21;4.88;;;1.50;;
43150;SDS011;28755;51.478;5.702;2022-07-17T12:19:07;4.72;;;1.42;;
43150;SDS011;28755;51.478;5.702;2022-07-17T12:21:46;5.60;;;1.38;;
43150;SDS011;28755;51.478;5.702;2022-07-17T12:24:19;4.43;;;1.60;;
43150;SDS011;28755;51.478;5.702;2022-07-17T12:26:51;6.90;;;1.77;;
43150;SDS011;28755;51.478;5.702;2022-07-17T12:29:17;4.88;;;1.40;;
43150;SDS011;28755;51.478;5.702;2022-07-17T12:31:43;7.38;;;1.60;;
43150;SDS011;28755;51.478;5.702;2022-07-17T12:34:09;6.15;;;1.52;;
43150;SDS011;28755;51.478;5.702;2022-07-17T12:36:34;9.32;;;1.67;;
43150;SDS011;28755;51.478;5.702;2022-07-17T12:39:00;5.78;;;1.70;;
43150;SDS011;28755;51.478;5.702;2022-07-17T12:41:26;7.32;;;1.60;;
43150;SDS011;28755;51.478;5.702;2022-07-17T12:43:51;2.78;;;1.35;;
43150;SDS011;28755;51.478;5.702;2022-07-17T12:46:17;5.60;;;1.50;;
43150;SDS011;28755;51.478;5.702;2022-07-17T12:48:43;4.53;;;1.30;;
43150;SDS011;28755;51.478;5.702;2022-07-17T12:51:09;7.57;;;1.73;;
43150;SDS011;28755;51.478;5.702;2022-07-17T12:53:38;5.80;;;1.30;;
43150;SDS011;28755;51.478;5.702;2022-07-17T12:56:05;6.22;;;2.08;;
43150;SDS011;28755;51.478;5.702;2022-07-17T12:58:32;7.25;;;1.70;;
43150;SDS011;28755;51.478;5.702;2022-07-17T13:00:58;7.15;;;1.40;;
43150;SDS011;28755;51.478;5.702;2022-07-17T13:03:25;6.78;;;1.45;;
43150;SDS011;28755;51.478;5.702;2022-07-17T13:05:51;8.52;;;2.45;;
43150;SDS011;28755;51.478;5.702;2022-07-17T13:08:16;6.57;;;1.77;;
43150;SDS011;28755;51.478;5.702;2022-07-17T13:10:42;4.35;;;1.27;;
43150;SDS011;28755;51.478;5.702;2022-07-17T13:13:08;4.93;;;1.30;;
43150;SDS011;28755;51.478;5.702;2022-07-17T13:15:33;5.30;;;1.35;;
43150;SDS011;28755;51.478;5.702;2022-07-17T13:17:59;7.05;;;1.63;;
43150;SDS011;28755;51.478;5.702;2022-07-17T13:20:25;7.22;;;1.58;;
43150;SDS011;28755;51.478;5.702;2022-07-17T13:22:52;4.63;;;1.20;;
43150;SDS011;28755;51.478;5.702;2022-07-17T13:25:18;3.90;;;1.20;;
43150;SDS011;28755;51.478;5.702;2022-07-17T13:27:43;4.93;;;1.45;;
43150;SDS011;28755;51.478;5.702;2022-07-17T13:30:09;4.05;;;1.25;;
43150;SDS011;28755;51.478;5.702;2022-07-17T13:32:35;7.25;;;1.40;;
43150;SDS011;28755;51.478;5.702;2022-07-17T13:35:01;3.75;;;1.05;;
43150;SDS011;28755;51.478;5.702;2022-07-17T13:37:27;5.63;;;1.02;;
43150;SDS011;28755;51.478;5.702;2022-07-17T13:39:53;7.82;;;1.20;;
43150;SDS011;28755;51.478;5.702;2022-07-17T13:42:18;6.30;;;1.27;;
43150;SDS011;28755;51.478;5.702;2022-07-17T13:44:44;6.35;;;1.42;;
43150;SDS011;28755;51.478;5.702;2022-07-17T13:47:09;3.80;;;1.10;;
43150;SDS011;28755;51.478;5.702;2022-07-17T13:49:35;5.18;;;1.50;;
43150;SDS011;28755;51.478;5.702;2022-07-17T13:52:01;3.58;;;1.20;;
43150;SDS011;28755;51.478;5.702;2022-07-17T13:54:27;6.38;;;1.30;;
43150;SDS011;28755;51.478;5.702;2022-07-17T13:56:52;4.28;;;1.27;;
43150;SDS011;28755;51.478;5.702;2022-07-17T13:59:18;3.90;;;1.33;;
43150;SDS011;28755;51.478;5.702;2022-07-17T14:01:44;7.70;;;1.40;;
43150;SDS011;28755;51.478;5.702;2022-07-17T14:04:09;4.25;;;1.08;;
43150;SDS011;28755;51.478;5.702;2022-07-17T14:06:35;4.85;;;1.13;;
43150;SDS011;28755;51.478;5.702;2022-07-17T14:09:01;5.03;;;1.23;;
43150;SDS011;28755;51.478;5.702;2022-07-17T14:11:26;7.40;;;3.67;;
43150;SDS011;28755;51.478;5.702;2022-07-17T14:13:52;7.78;;;1.40;;
43150;SDS011;28755;51.478;5.702;2022-07-17T14:16:18;4.63;;;1.40;;
43150;SDS011;28755;51.478;5.702;2022-07-17T14:18:44;5.47;;;1.23;;
43150;SDS011;28755;51.478;5.702;2022-07-17T14:21:26;4.88;;;1.73;;
43150;SDS011;28755;51.478;5.702;2022-07-17T14:23:56;3.40;;;1.33;;
43150;SDS011;28755;51.478;5.702;2022-07-17T14:26:22;10.18;;;1.30;;
43150;SDS011;28755;51.478;5.702;2022-07-17T14:28:48;4.00;;;1.25;;
43150;SDS011;28755;51.478;5.702;2022-07-17T14:31:14;3.58;;;1.33;;
43150;SDS011;28755;51.478;5.702;2022-07-17T14:33:41;5.45;;;1.27;;
43150;SDS011;28755;51.478;5.702;2022-07-17T14:36:07;4.75;;;1.40;;
43150;SDS011;28755;51.478;5.702;2022-07-17T14:38:33;5.75;;;1.35;;
43150;SDS011;28755;51.478;5.702;2022-07-17T14:40:59;4.18;;;1.30;;
43150;SDS011;28755;51.478;5.702;2022-07-17T14:43:27;4.03;;;1.00;;
43150;SDS011;28755;51.478;5.702;2022-07-17T14:45:54;3.95;;;1.25;;
43150;SDS011;28755;51.478;5.702;2022-07-17T14:48:20;6.00;;;1.50;;
43150;SDS011;28755;51.478;5.702;2022-07-17T14:50:45;5.35;;;1.25;;
43150;SDS011;28755;51.478;5.702;2022-07-17T14:53:11;6.15;;;1.30;;
43150;SDS011;28755;51.478;5.702;2022-07-17T14:55:37;5.80;;;1.50;;